createdAt,value
2018-05-14T05:02:57.437Z,86.67
2018-05-14T05:05:30.730Z,86.59
2018-05-14T05:08:04.008Z,86.41
2018-05-14T05:10:38.061Z,86.57
2018-05-14T05:13:11.323Z,86.52
2018-05-14T05:15:45.376Z,86.22
2018-05-14T05:18:18.638Z,86.46
2018-05-14T05:20:51.928Z,86.44
2018-05-14T05:23:25.244Z,86.40
2018-05-14T05:25:58.497Z,86.46
2018-05-14T05:28:31.747Z,85.95
2018-05-14T05:31:05.033Z,85.84
2018-05-14T05:33:38.292Z,85.63
2018-05-14T05:36:11.577Z,85.76
2018-05-14T05:38:45.603Z,85.13
2018-05-14T05:41:19.664Z,85.44
2018-05-14T05:43:52.909Z,85.34
2018-05-14T05:46:26.187Z,85.28
2018-05-14T05:49:00.217Z,84.74
2018-05-14T05:51:33.528Z,84.81
2018-05-14T05:54:06.876Z,84.80
2018-05-14T05:56:40.872Z,84.61
2018-05-14T05:59:14.115Z,84.79
2018-05-14T06:01:48.157Z,84.71
2018-05-14T06:04:21.429Z,84.56
2018-05-14T06:06:54.707Z,84.71
2018-05-14T06:09:28.004Z,84.84
2018-05-14T06:12:01.244Z,84.69
2018-05-14T06:14:34.513Z,84.72
2018-05-14T06:17:07.787Z,84.50
2018-05-14T06:19:41.051Z,84.33
2018-05-14T06:22:14.390Z,83.97
2018-05-14T06:24:47.601Z,83.60
2018-05-14T06:27:20.869Z,83.70
2018-05-14T06:29:54.139Z,83.31
2018-05-14T06:32:28.180Z,83.22
2018-05-14T06:35:01.443Z,83.27
2018-05-14T06:37:35.496Z,83.07
2018-05-14T06:40:08.752Z,82.70
2018-05-14T06:42:42.795Z,82.28
2018-05-14T06:45:16.067Z,82.42
2018-05-14T06:47:50.112Z,82.28
2018-05-14T06:50:23.401Z,82.29
2018-05-14T06:52:56.688Z,82.27
2018-05-14T06:55:30.104Z,82.50
2018-05-14T06:58:03.399Z,82.36
2018-05-14T07:00:36.680Z,82.30
2018-05-14T07:03:10.023Z,82.08
2018-05-14T07:05:43.435Z,81.17
2018-05-14T07:08:16.710Z,80.48
2018-05-14T07:10:49.996Z,80.60
2018-05-14T07:13:23.280Z,79.65
2018-05-14T07:15:56.531Z,78.65
2018-05-14T07:18:29.948Z,78.95
2018-05-14T07:21:03.270Z,79.22
2018-05-14T07:23:36.680Z,79.09
2018-05-14T07:26:09.998Z,80.22
2018-05-14T07:28:43.448Z,78.62
2018-05-14T07:31:16.793Z,79.17
2018-05-14T07:33:50.258Z,78.62
2018-05-14T07:36:23.570Z,78.26
2018-05-14T07:38:57.742Z,78.34
2018-05-14T07:41:31.053Z,78.17
2018-05-14T07:44:04.380Z,78.69
2018-05-14T07:46:37.680Z,79.05
2018-05-14T07:49:11.075Z,78.95
2018-05-14T07:51:44.385Z,78.43
2018-05-14T07:54:17.734Z,78.72
2018-05-14T07:56:51.029Z,78.34
2018-05-14T07:59:24.381Z,78.43
2018-05-14T08:01:57.644Z,79.23
2018-05-14T08:04:30.939Z,79.49
2018-05-14T08:07:04.205Z,78.14
2018-05-14T08:09:38.201Z,78.84
2018-05-14T08:12:11.478Z,78.94
2018-05-14T08:14:44.756Z,78.40
2018-05-14T08:17:18.794Z,78.58
2018-05-14T08:19:52.071Z,78.35
2018-05-14T08:22:25.340Z,78.36
2018-05-14T08:24:58.624Z,78.78
2018-05-14T08:27:31.890Z,78.69
2018-05-14T08:30:05.193Z,78.85
2018-05-14T08:32:38.459Z,79.04
2018-05-14T08:35:11.745Z,79.63
2018-05-14T08:37:45.011Z,79.20
2018-05-14T08:40:18.939Z,78.48
2018-05-14T08:42:52.148Z,78.83
2018-05-14T08:45:25.433Z,78.28
2018-05-14T08:47:59.605Z,78.52
2018-05-14T08:50:32.804Z,77.76
2018-05-14T08:53:06.857Z,77.12
2018-05-14T08:55:40.140Z,76.98
2018-05-14T08:58:14.181Z,75.91
2018-05-14T09:00:47.476Z,75.38
2018-05-14T09:03:20.742Z,73.76
2018-05-14T09:05:54.005Z,74.51
2018-05-14T09:08:27.279Z,73.54
2018-05-14T09:11:00.544Z,74.34
2018-05-14T09:13:33.832Z,74.47
2018-05-14T09:16:07.100Z,72.47
2018-05-14T09:18:40.372Z,72.91
2018-05-14T09:21:13.635Z,74.38
2018-05-14T09:23:46.918Z,73.09
2018-05-14T09:26:20.171Z,72.94
2018-05-14T09:28:53.455Z,73.08
2018-05-14T09:31:27.493Z,71.20
2018-05-14T09:34:00.770Z,71.60
2018-05-14T09:36:34.079Z,69.98
2018-05-14T09:39:07.335Z,70.56
2018-05-14T09:41:40.600Z,69.24
2018-05-14T09:44:14.652Z,70.36
2018-05-14T09:46:48.681Z,68.40
2018-05-14T09:49:22.727Z,69.18
2018-05-14T09:51:56.011Z,69.12
2018-05-14T09:54:29.275Z,66.19
2018-05-14T09:57:03.319Z,67.14
2018-05-14T09:59:36.653Z,66.79
2018-05-14T10:02:09.934Z,67.65
2018-05-14T10:04:43.187Z,66.88
2018-05-14T10:07:16.469Z,68.12
2018-05-14T10:09:50.496Z,68.51
2018-05-14T10:12:23.808Z,66.37
2018-05-14T10:14:57.084Z,65.03
2018-05-14T10:17:30.380Z,66.34
2018-05-14T10:20:03.660Z,65.04
2018-05-14T10:22:37.811Z,63.40
2018-05-14T10:25:11.079Z,65.13
2018-05-14T10:27:44.363Z,64.70
2018-05-14T10:30:17.625Z,63.38
2018-05-14T10:32:51.025Z,63.96
2018-05-14T10:35:24.275Z,64.44
2018-05-14T10:37:57.592Z,64.03
2018-05-14T10:40:30.849Z,64.18
2018-05-14T10:43:04.125Z,64.63
2018-05-14T10:45:37.392Z,62.63
2018-05-14T10:48:10.692Z,63.01
2018-05-14T10:50:43.949Z,63.33
2018-05-14T10:53:17.243Z,61.85
2018-05-14T10:55:50.504Z,62.58
2018-05-14T10:58:23.789Z,61.50
2018-05-14T11:00:57.809Z,61.87
2018-05-14T11:03:31.094Z,62.23
2018-05-14T11:06:05.131Z,63.25
2018-05-14T11:08:38.400Z,62.73
2018-05-14T11:11:12.429Z,62.42
2018-05-14T11:13:45.708Z,60.23
2018-05-14T11:16:19.742Z,60.93
2018-05-14T11:18:53.051Z,61.69
2018-05-14T11:21:26.289Z,62.42
2018-05-14T11:24:00.341Z,60.94
2018-05-14T11:26:33.612Z,59.83
2018-05-14T11:29:06.889Z,58.66
2018-05-14T11:31:40.907Z,59.18
2018-05-14T11:34:14.952Z,57.05
2018-05-14T11:36:48.219Z,56.93
2018-05-14T11:39:22.269Z,57.45
2018-05-14T11:41:55.528Z,57.05
2018-05-14T11:44:28.809Z,55.90
2018-05-14T11:47:02.837Z,56.43
2018-05-14T11:49:36.126Z,56.44
2018-05-14T11:52:09.452Z,56.65
2018-05-14T11:54:42.664Z,56.73
2018-05-14T11:57:15.917Z,55.41
2018-05-14T11:59:49.211Z,53.05
2018-05-14T12:02:22.596Z,53.97
2018-05-14T12:04:56.622Z,53.55
2018-05-14T12:07:29.899Z,53.35
2018-05-14T12:10:04.031Z,52.31
2018-05-14T12:12:37.212Z,53.73
2018-05-14T12:15:10.471Z,52.43
2018-05-14T12:17:43.752Z,52.36
2018-05-14T12:20:17.036Z,52.35
2018-05-14T12:22:50.308Z,51.68
2018-05-14T12:25:23.580Z,51.54
2018-05-14T12:27:57.631Z,51.31
2018-05-14T12:30:30.892Z,52.08
2018-05-14T12:33:04.184Z,51.17
2018-05-14T12:35:38.221Z,50.78
2018-05-14T12:38:11.487Z,49.33
2018-05-14T12:40:44.748Z,51.24
2018-05-14T12:43:18.033Z,51.69
2018-05-14T12:45:51.302Z,51.25
2018-05-14T12:48:24.577Z,51.00
2018-05-14T12:50:57.831Z,51.50
2018-05-14T12:53:31.113Z,51.28
2018-05-14T12:56:05.147Z,50.05
2018-05-14T12:58:39.199Z,50.01
2018-05-14T13:01:12.466Z,49.42
2018-05-14T13:03:46.861Z,49.32
2018-05-14T13:06:20.131Z,49.87
2018-05-14T13:08:53.401Z,49.93
2018-05-14T13:11:26.699Z,50.36
2018-05-14T13:13:59.963Z,50.16
2018-05-14T13:16:33.249Z,49.44
2018-05-14T13:19:06.553Z,48.45
2018-05-14T13:21:39.917Z,47.52
2018-05-14T13:24:13.171Z,47.34
2018-05-14T13:26:46.452Z,46.98
2018-05-14T13:29:19.718Z,46.59
2018-05-14T13:31:53.763Z,45.77
2018-05-14T13:34:27.025Z,46.71
2018-05-14T13:37:01.068Z,46.19
2018-05-14T13:39:34.329Z,47.71
2018-05-14T13:42:08.383Z,48.10
2018-05-14T13:44:41.648Z,48.86
2018-05-14T13:47:14.932Z,49.07
2018-05-14T13:49:48.981Z,49.51
2018-05-14T13:52:22.269Z,49.51
2018-05-14T13:54:55.532Z,48.82
2018-05-14T13:57:29.605Z,48.99
2018-05-14T14:00:02.878Z,48.41
2018-05-14T14:02:36.364Z,48.34
2018-05-14T14:05:09.633Z,48.23
2018-05-14T14:07:43.712Z,47.27
2018-05-14T14:10:17.188Z,46.84
2018-05-14T14:12:50.558Z,46.54
2018-05-14T14:15:23.808Z,46.73
2018-05-14T14:17:57.143Z,46.18
2018-05-14T14:20:30.416Z,45.19
2018-05-14T14:23:04.546Z,46.11
2018-05-14T14:25:37.753Z,47.24
2018-05-14T14:28:11.034Z,46.06
2018-05-14T14:30:44.309Z,45.19
2018-05-14T14:33:17.580Z,45.63
2018-05-14T14:35:50.847Z,45.89
2018-05-14T14:38:24.135Z,44.88
2018-05-14T14:40:57.392Z,45.31
2018-05-14T14:43:30.712Z,47.02
2018-05-14T14:46:03.975Z,47.60
2018-05-14T14:48:38.018Z,47.89
2018-05-14T14:51:11.280Z,49.01
2018-05-14T14:53:44.563Z,50.16
2018-05-14T14:56:17.819Z,50.69
2018-05-14T14:58:51.089Z,49.99
2018-05-14T15:01:24.352Z,48.59
2018-05-14T15:03:57.631Z,48.27
2018-05-14T15:06:30.884Z,47.56
2018-05-14T15:09:04.173Z,46.10
2018-05-14T15:11:37.440Z,44.33
2018-05-14T15:14:11.463Z,43.66
2018-05-14T15:16:44.739Z,41.35
2018-05-14T15:19:18.792Z,41.90
2018-05-14T15:21:52.053Z,43.15
2018-05-14T15:24:25.371Z,44.26
2018-05-14T15:26:58.595Z,44.52
2018-05-14T15:29:31.872Z,43.70
2018-05-14T15:32:05.119Z,43.31
2018-05-14T15:34:39.175Z,43.32
2018-05-14T15:37:12.420Z,43.96
2018-05-14T15:39:46.462Z,45.53
2018-05-14T15:42:19.723Z,46.80
2018-05-14T15:44:52.997Z,47.20
2018-05-14T15:47:26.251Z,47.34
2018-05-14T15:49:59.616Z,45.50
2018-05-14T15:52:32.805Z,44.75
2018-05-14T15:55:06.852Z,44.28
2018-05-14T15:57:40.112Z,43.75
2018-05-14T16:00:13.400Z,43.76
2018-05-14T16:02:46.649Z,43.77
2018-05-14T16:05:19.933Z,44.27
2018-05-14T16:07:53.200Z,44.94
2018-05-14T16:10:27.233Z,47.76
2018-05-14T16:13:00.489Z,48.70
2018-05-14T16:15:34.548Z,49.41
2018-05-14T16:18:07.804Z,49.35
2018-05-14T16:20:41.870Z,49.65
2018-05-14T16:23:15.097Z,50.10
2018-05-14T16:25:48.484Z,50.19
2018-05-14T16:28:21.747Z,49.80
2018-05-14T16:30:55.021Z,50.02
2018-05-14T16:33:28.275Z,49.63
2018-05-14T16:36:02.324Z,49.40
2018-05-14T16:38:35.586Z,49.14
2018-05-14T16:41:08.853Z,48.79
2018-05-14T16:43:42.103Z,47.17
2018-05-14T16:46:15.392Z,46.64
2018-05-14T16:48:48.656Z,45.77
2018-05-14T16:51:21.927Z,45.36
2018-05-14T16:53:55.187Z,44.24
2018-05-14T16:56:28.488Z,43.59
2018-05-14T16:59:01.749Z,43.40
2018-05-14T17:01:35.907Z,43.24
2018-05-14T17:04:09.243Z,41.99
2018-05-14T17:06:42.520Z,41.88
2018-05-14T17:09:15.773Z,41.48
2018-05-14T17:11:49.162Z,41.27
2018-05-14T17:14:22.427Z,41.49
2018-05-14T17:16:55.726Z,41.70
2018-05-14T17:19:29.741Z,41.96
2018-05-14T17:22:03.024Z,42.54
2018-05-14T17:24:37.049Z,43.09
2018-05-14T17:27:11.202Z,43.00
2018-05-14T17:29:44.475Z,42.60
2018-05-14T17:32:17.754Z,40.13
2018-05-14T17:34:51.005Z,39.46
2018-05-14T17:37:24.281Z,38.90
2018-05-14T17:39:57.549Z,38.50
2018-05-14T17:42:30.839Z,38.02
2018-05-14T17:45:04.101Z,37.55
2018-05-14T17:47:37.491Z,37.56
2018-05-14T17:50:11.577Z,37.62
2018-05-14T17:52:44.921Z,37.23
2018-05-14T17:55:21.231Z,38.61
2018-05-14T17:57:55.082Z,40.38
2018-05-14T18:00:28.374Z,41.79
2018-05-14T18:03:01.773Z,42.00
2018-05-14T18:05:35.060Z,42.61
2018-05-14T18:08:08.329Z,42.59
2018-05-14T18:10:41.671Z,42.87
2018-05-14T18:13:14.885Z,43.22
2018-05-14T18:15:48.135Z,43.13
2018-05-14T18:18:21.415Z,43.25
2018-05-14T18:21:00.497Z,43.00
2018-05-14T18:23:39.308Z,42.76
2018-05-14T18:26:18.756Z,42.84
2018-05-14T18:28:53.513Z,43.18
2018-05-14T18:31:27.814Z,43.20
2018-05-14T18:34:06.455Z,43.11
2018-05-14T18:36:40.482Z,43.06
2018-05-14T18:39:13.791Z,43.15
2018-05-14T18:41:47.030Z,43.22
2018-05-14T18:44:34.918Z,43.62
2018-05-14T18:47:08.180Z,43.95
2018-05-14T18:49:41.453Z,44.12
2018-05-14T18:52:15.282Z,44.66
2018-05-14T18:54:48.574Z,44.93
2018-05-14T18:57:26.120Z,46.23
2018-05-14T19:00:00.171Z,46.62
2018-05-14T19:02:33.436Z,47.90
2018-05-14T19:05:07.468Z,48.51
2018-05-14T19:07:40.727Z,48.94
2018-05-14T19:10:20.244Z,49.85
2018-05-14T19:12:53.513Z,50.67
2018-05-14T19:15:32.096Z,50.52
2018-05-14T19:18:05.364Z,50.54
2018-05-14T19:20:40.140Z,51.26
2018-05-14T19:23:18.930Z,51.27
2018-05-14T19:25:52.211Z,51.36
2018-05-14T19:28:31.049Z,51.00
2018-05-14T19:31:05.079Z,51.00
2018-05-14T19:33:43.841Z,50.72
2018-05-14T19:36:17.118Z,50.36
2018-05-14T19:38:50.391Z,50.01
2018-05-14T19:41:23.681Z,50.29
2018-05-14T19:43:56.945Z,50.44
2018-05-14T19:46:30.213Z,50.48
2018-05-14T19:49:03.474Z,50.60
2018-05-14T19:51:36.768Z,50.87
2018-05-14T19:54:10.050Z,51.05
2018-05-14T19:56:43.323Z,51.07
2018-05-14T19:59:17.352Z,51.34
2018-05-14T20:01:50.632Z,51.30
2018-05-14T20:04:24.652Z,51.84
2018-05-14T20:06:58.703Z,50.92
2018-05-14T20:09:32.035Z,50.78
2018-05-14T20:12:05.304Z,50.79
2018-05-14T20:14:38.577Z,50.73
2018-05-14T20:17:11.824Z,50.58
2018-05-14T20:19:45.099Z,50.06
2018-05-14T20:22:18.360Z,49.71
2018-05-14T20:24:51.657Z,49.44
2018-05-14T20:27:24.917Z,49.45
2018-05-14T20:29:58.958Z,49.61
2018-05-14T20:32:32.216Z,49.43
2018-05-14T20:35:06.367Z,49.52
2018-05-14T20:37:39.644Z,49.56
2018-05-14T20:40:13.704Z,49.52
2018-05-14T20:42:46.982Z,49.70
2018-05-14T20:45:20.461Z,49.75
2018-05-14T20:47:53.635Z,49.74
2018-05-14T20:50:27.009Z,49.87
2018-05-14T20:53:01.045Z,49.88
2018-05-14T20:55:35.077Z,49.76
2018-05-14T20:58:08.344Z,49.60
2018-05-14T21:00:42.417Z,49.74
2018-05-14T21:03:15.675Z,49.50
2018-05-14T21:05:49.180Z,49.37
2018-05-14T21:08:22.324Z,49.30
2018-05-14T21:10:55.613Z,48.97
2018-05-14T21:13:28.866Z,48.92
2018-05-14T21:16:02.144Z,48.85
2018-05-14T21:18:35.406Z,48.45
2018-05-14T21:21:09.567Z,48.18
2018-05-14T21:23:42.830Z,47.87
2018-05-14T21:26:16.873Z,47.96
2018-05-14T21:28:50.126Z,47.70
2018-05-14T21:31:24.178Z,47.62
2018-05-14T21:33:57.431Z,47.54
2018-05-14T21:36:31.483Z,47.44
2018-05-14T21:39:04.804Z,46.99
2018-05-14T21:41:38.133Z,47.07
2018-05-14T21:44:12.151Z,47.21
2018-05-14T21:46:45.432Z,47.15
2018-05-14T21:49:18.689Z,47.56
2018-05-14T21:51:51.963Z,47.06
2018-05-14T21:54:25.227Z,47.14
2018-05-14T21:56:59.276Z,47.39
2018-05-14T21:59:32.537Z,47.52
2018-05-14T22:02:06.560Z,47.58
2018-05-14T22:04:39.832Z,47.44
2018-05-14T22:07:13.989Z,47.59
2018-05-14T22:09:47.243Z,47.34
2018-05-14T22:12:21.295Z,47.79
2018-05-14T22:14:54.551Z,48.11
2018-05-14T22:17:27.838Z,48.10
2018-05-14T22:20:01.852Z,48.13
2018-05-14T22:22:35.992Z,48.16
2018-05-14T22:25:09.252Z,48.11
2018-05-14T22:27:42.543Z,49.53
